Southboro, Massachusetts
Current Conditions -  °F | °C
As of 10:56 AM on Tuesday 21 Oct 2014 (Local Time) from KBED Reporting Station
Few Clouds Few Clouds  
Wind Chill: 53°   Ceiling: Unl
Heat Index: 53°   Visibility: 10mi
Dew Point: 48°   Wind: 3mph
Humidity: 83%   Direction: NA
Pressure: 29.96"   Gusts: NA
Location:  42.3002°N, 71.5323°W
Report Text: KBED 211456Z VRB03KT 10SM FEW033 12/09 A2996 RMK AO2 RAB02E18 SLP159 P0000 60000 T01170089 58002
Loading
Personal Weather Stations






























Interactive Weather Map
Tropical Storm Tracking
New forecast layout! Learn more

10-Day Weather Forecast

Advertisements
Track Severe Weather on mobile